Airfield :
LOGIN :

Register | Disclaimer

   EN    FR    IT 

 










Legend :    VFR   Marginal VFR   IFR   Intensive IFR   Very Intensive IFR
Visi :
Ceiling :
>= 8 km
>= 3000ft
5 to 8 km
1000 to 3000 ft
1500m to 5 km
500 to 1000 ft
800 to 1500m
200 to 500 ft
< 800m
< 200 ft
Symbols :   Thunderstorms  Fog  Heavy snow  Heavy precipitations  Wind > 20 kt
SIGMETs :     Misc.  Thunderstorms  Icing  Turbulence  Mountain Waves  Volcanic Ashes






- Airport Elevation : 1411 ft
- IATA code : SZG


LOWS - Salzburg

CURRENT METAR :
  • 181150Z 35007KT 9999 FEW060 24/12 Q1024 NOSIG

EXPIRED METARs :
  • 181120Z 36006KT 9999 FEW050 23/11 Q1024 NOSIG
  • 181050Z 01007KT 9999 FEW050 23/12 Q1025 NOSIG
  • 181020Z 36007KT 9999 FEW045 23/13 Q1025 NOSIG
  • 180950Z 04006KT 9999 FEW060 22/13 Q1025 NOSIG
  • 180920Z AUTO 34005KT 290V060 9999 FEW060 22/13 Q1025 NOSIG

TAF TAF LOWS
Valid from the 18 at 12:00 until the 19 at 12:00 UTC


181115Z 1812/1912 03007KT 9999 FEW050 TX27/1912Z TN11/1902Z
BECMG 1819/1821 14005KT CAVOK
BECMG 1908/1910 35006KT 9999 FEW050



MET'MAP, your aeronautical weather chart ! - Copyright ORBIFLY December 2007 - Disclaimer

ORBIFLY MET'MAP TEAM :

Programming & Development : Alexandra Zaïnal
Original concept : Baudouin d'Aumeries
Technical & hardware support : Manuel Goepfert
Assistance : Marc-Olivier Méhu

Contact : metmap@orbifly.com




SOURCES & CREDITS :

   NOAA